Latest Coastal Weather Observations for Taree Airport

IDN60701

Issued at 7:22 pm EST Monday 27 June 2016 (issued every 10 minutes, with the page automatically refreshed every 10 minutes)

About coastal observations | Map of coastal stations | Coastal observations for NSW | Marine services | Other Formats
Station Details ID: 060141 Name: TAREE AIRPORT AWS Lat: -31.89 Lon: 152.51 Height: 8.0 m
Data from the previous 72 hours. | See also: Recent months at Taree Airport
Date/Time
EST
Temp
°C
Wind Pressure Rain since
9am
mm
Weather Cloud Vis
km
Sea
Height
m
Swell
Dir  Spd
kts
Gust
kts
hPa Trend Height
m
Period
s
Dir
27/07:00pm 11.0 W 10 16 1015.5 - 0.0 - Cloudy 10 - - - -
27/06:30pm 11.1 W 7 10 1015.3 - 0.0 - Cloudy 10 - - - -
27/06:00pm 11.0 W 8 11 1014.8 - 0.0 - Mostly cloudy 10 - - - -
27/05:30pm 11.2 W 7 9 1014.5 - 0.0 - Partly cloudy 10 - - - -
27/05:00pm 11.9 W 10 17 1013.9 - 0.0 - Partly cloudy 10 - - - -
27/04:30pm 12.6 W 11 17 1013.6 - 0.0 - Partly cloudy 10 - - - -
27/04:00pm 12.5 W 11 17 1013.4 - 0.0 - Cloudy 10 - - - -
27/03:30pm 12.6 W 8 12 1013.1 - 0.0 - Partly cloudy 10 - - - -
27/03:00pm 12.6 W 10 15 1012.8 - 0.0 - Mostly clear 10 - - - -
27/02:30pm 13.1 WSW 7 9 1012.5 - 0.0 - Partly cloudy 10 - - - -
27/02:00pm 13.5 W 11 15 1012.3 - 0.0 - Partly cloudy 10 - - - -
27/01:30pm 13.0 WSW 7 10 1012.4 - 0.0 - Partly cloudy 10 - - - -
27/01:00pm 12.5 W 8 15 1012.8 - 0.0 - Partly cloudy 10 - - - -
27/12:30pm 12.5 W 9 14 1013.2 - 0.0 - Partly cloudy 10 - - - -
27/12:00pm 12.9 WSW 11 16 1013.7 - 0.0 Rain Mostly clear 10 - - - -
27/11:30am 11.2 W 7 10 1014.2 - 0.0 - Partly cloudy 10 - - - -
27/11:00am 11.1 WSW 8 10 1014.7 - 0.0 - - 10 - - - -
27/10:30am 9.9 W 6 8 1014.9 - 0.0 - - 10 - - - -
27/10:00am 9.5 W 6 8 1015.1 - 0.0 - - 10 - - - -
27/09:30am 9.1 W 6 8 1015.3 - 0.0 - Partly cloudy 10 - - - -
27/09:00am 8.9 W 7 9 1015.4 - 1.4 Rain Mostly clear 10 - - - -
27/08:30am 8.5 WSW 6 7 1015.5 - 1.4 - Partly cloudy 10 - - - -
27/08:00am 8.5 WSW 5 7 1015.4 - 1.4 - Partly cloudy 10 - - - -
27/07:30am 8.7 WSW 6 8 1015.7 - 1.0 - Partly cloudy 10 - - - -
27/07:00am 8.6 WNW 5 7 1015.4 - 0.4 - Cloudy 10 - - - -
27/06:30am 8.9 WSW 5 7 1015.0 - 0.2 - Partly cloudy 10 - - - -
27/06:00am 8.5 CALM 0 4 1014.8 - 0.0 Rain Cloudy 10 - - - -
27/05:30am 8.9 NNE 2 6 1014.6 - 0.0 - Partly cloudy 10 - - - -
27/05:00am 8.9 WSW 6 7 1014.4 - 0.0 - Cloudy 10 - - - -
27/04:30am 8.7 NW 6 8 1014.8 - 0.0 - Partly cloudy 10 - - - -
27/04:00am 9.1 WSW 5 8 1014.4 - 0.0 - Partly cloudy 10 - - - -
27/03:30am 8.2 NW 5 8 1014.9 - 0.0 - Partly cloudy 10 - - - -
27/03:00am 8.3 SW 5 7 1014.3 - 0.0 - Cloudy 10 - - - -
27/02:30am 8.2 W 4 5 1014.5 - 0.0 - Partly cloudy 10 - - - -
27/02:00am 7.4 NW 1 3 1014.5 - 0.0 - Cloudy 10 - - - -
27/01:30am 7.5 NW 4 5 1014.7 - 0.0 - Cloudy 10 - - - -
27/01:00am 7.6 CALM 0 0 1014.6 - 0.0 - - 10 - - - -
27/12:30am 7.6 CALM 0 0 1014.8 - 0.0 - - 10 - - - -
27/12:00am 8.7 WSW 5 6 1015.6 - 0.0 - Mostly cloudy 10 - - - -
 
Date/Time
EST
Temp
°C
Wind Pressure Rain since
9am
mm
Weather Cloud Vis
km
Sea
Height
m
Swell
Dir  Spd
kts
Gust
kts
hPa Trend Height
m
Period
s
Dir
26/11:30pm 8.5 W 4 6 1015.8 - 0.0 - Partly cloudy 10 - - - -
26/11:00pm 8.2 WNW 1 5 1015.7 - 0.0 - Partly cloudy 10 - - - -
26/10:30pm 8.0 CALM 0 0 1016.2 - 0.0 - Cloudy 10 - - - -
26/10:00pm 8.2 NE 4 4 1016.3 - 0.0 - Partly cloudy 10 - - - -
26/09:30pm 9.1 W 2 5 1016.5 - 0.0 - - 10 - - - -
26/09:00pm 9.6 S 3 4 1016.5 - 0.0 - Cloudy 10 - - - -
26/08:53pm 9.5 S 2 4 1016.4 - 0.0 - - 10 - - - -
26/08:35pm 9.2 SSW 4 5 1016.8 - 0.0 - - 5 - - - -
26/08:30pm 9.5 SSW 5 6 1017.2 - 0.0 - - 10 - - - -
26/08:00pm 9.8 NNE 1 5 1017.4 - 0.0 - - 10 - - - -
26/07:30pm 9.7 ENE 1 3 1017.5 - 0.0 - - 10 - - - -
26/07:00pm 10.7 N 3 4 1017.6 - 0.0 - - 10 - - - -
26/06:30pm 10.3 NNE 5 7 1017.4 - 0.0 - - 10 - - - -
26/06:00pm 10.3 CALM 0 0 1017.5 - 0.0 - Cloudy 10 - - - -
26/05:30pm 10.4 CALM 0 0 1017.0 - 0.0 - - 10 - - - -
26/05:00pm 11.6 ENE 4 5 1016.6 - 0.0 - - 10 - - - -
26/04:30pm 12.5 ENE 5 6 1016.6 - 0.0 - - 10 - - - -
26/04:00pm 13.6 ENE 6 7 1016.8 - 0.0 - - 10 - - - -
26/03:30pm 14.1 ESE 6 7 1016.8 - 0.0 - - 10 - - - -
26/03:00pm 14.6 E 5 6 1017.0 - 0.0 - Mostly clear 10 - - - -
26/02:30pm 14.9 ESE 5 5 1017.1 - 0.0 - - 10 - - - -
26/02:00pm 14.8 SE 5 8 1017.2 - 0.0 - - 10 - - - -
26/01:30pm 15.8 SSE 2 4 1017.4 - 0.0 - - 10 - - - -
26/01:00pm 15.3 SW 4 6 1017.7 - 0.0 - - 10 - - - -
26/12:30pm 15.0 WSW 3 6 1018.3 - 0.0 - - 10 - - - -
26/12:00pm 14.2 SSW 5 7 1018.8 - 0.0 - - 10 - - - -
26/11:30am 13.8 W 5 7 1019.6 - 0.0 - - 10 - - - -
26/11:00am 12.4 W 8 11 1020.6 - 0.0 - - 10 - - - -
26/10:30am 11.3 WSW 8 11 1021.1 - 0.0 - - 10 - - - -
26/10:00am 10.4 WSW 6 8 1021.1 - 0.0 - - 10 - - - -
26/09:30am 8.5 W 6 7 1020.9 - 0.0 - - 10 - - - -
26/09:00am 7.5 W 7 8 1020.7 - 0.0 - - 10 - - - -
26/08:30am 6.3 WSW 6 8 1021.2 - 0.0 - - 10 - - - -
26/08:00am 4.9 W 3 4 1021.0 - 0.0 - - 10 - - - -
26/07:30am 4.6 W 5 7 1020.5 - 0.0 - - 10 - - - -
26/07:00am 4.6 W 5 7 1020.3 - 0.0 - - 10 - - - -
26/06:30am 4.6 WNW 6 8 1020.4 - 0.0 - - 10 - - - -
26/06:00am 4.5 W 7 8 1020.4 - 0.0 - - 10 - - - -
26/05:30am 4.6 W 5 6 1019.9 - 0.0 - - 10 - - - -
26/05:00am 4.8 W 7 10 1020.0 - 0.0 - - 10 - - - -
26/04:30am 4.3 W 7 8 1019.7 - 0.0 - - 10 - - - -
26/04:00am 4.4 W 7 8 1019.7 - 0.0 - - 10 - - - -
26/03:30am 4.5 W 5 7 1019.4 - 0.0 - - 10 - - - -
26/03:00am 4.8 WNW 6 8 1019.2 - 0.0 - - 10 - - - -
26/02:30am 5.0 W 6 8 1019.1 - 0.0 - - 10 - - - -
26/02:00am 4.7 W 6 7 1019.5 - 0.0 - - 10 - - - -
26/01:30am 4.8 W 6 7 1019.7 - 0.0 - - 10 - - - -
26/01:00am 5.0 W 6 8 1020.2 - 0.0 - - 10 - - - -
26/12:30am 5.0 W 7 8 1020.1 - 0.0 - - 10 - - - -
26/12:00am 5.2 W 8 10 1020.3 - 0.0 - - 10 - - - -
 
Date/Time
EST
Temp
°C
Wind Pressure Rain since
9am
mm
Weather Cloud Vis
km
Sea
Height
m
Swell
Dir  Spd
kts
Gust
kts
hPa Trend Height
m
Period
s
Dir
25/11:30pm 4.8 W 6 8 1020.3 - 0.0 - - 10 - - - -
25/11:00pm 5.0 W 5 6 1020.2 - 0.0 - - 10 - - - -
25/10:30pm 5.5 W 7 9 1020.2 - 0.0 - - 10 - - - -
25/10:00pm 5.6 WSW 7 8 1020.3 - 0.0 - - 10 - - - -
25/09:30pm 5.8 W 6 8 1020.3 - 0.0 - - 10 - - - -
25/09:00pm 6.5 WNW 7 8 1020.4 - 0.0 - - 10 - - - -
25/08:30pm 6.5 NW 6 7 1020.4 - 0.0 - - 10 - - - -
25/08:00pm 8.1 W 6 7 1019.9 - 0.0 - - 10 - - - -
25/07:30pm 6.9 S 5 6 1019.9 - 0.0 - - 10 - - - -
25/07:00pm 8.9 W 5 5 1019.6 - 0.0 - - 10 - - - -
25/06:30pm 9.4 WSW 6 9 1019.3 - 0.0 - - 10 - - - -
25/06:00pm 9.5 WSW 6 9 1019.0 - 0.0 - - 10 - - - -
25/05:30pm 10.0 SW 5 7 1018.8 - 0.0 - - 10 - - - -
25/05:00pm 10.8 SW 7 12 1018.4 - 0.0 - - 10 - - - -
25/04:30pm 11.9 SSW 9 13 1018.1 - 0.0 - - 10 - - - -
25/04:00pm 12.6 SW 14 18 1017.7 - 0.0 - - 10 - - - -
25/03:30pm 13.3 SW 12 16 1017.6 - 0.0 - - 10 - - - -
25/03:00pm 13.5 SW 15 19 1017.4 - 0.0 - - 10 - - - -
25/02:30pm 13.7 SW 13 19 1017.3 - 0.0 - - 10 - - - -
25/02:00pm 13.9 SW 13 19 1017.1 - 0.0 - - 10 - - - -
25/01:30pm 13.9 SW 14 19 1016.9 - 0.0 - - 10 - - - -
25/01:00pm 13.8 SW 12 16 1016.9 - 0.0 - - 10 - - - -
25/12:30pm 13.5 SW 13 21 1017.0 - 0.0 - - 10 - - - -
25/12:00pm 13.3 WSW 14 22 1017.3 - 0.0 - - 10 - - - -
25/11:30am 12.8 SW 15 22 1017.3 - 0.0 - - 10 - - - -
25/11:00am 12.8 SW 13 19 1017.6 - 0.0 - - 10 - - - -
25/10:30am 12.0 SW 15 22 1017.6 - 0.0 - - 10 - - - -
25/10:00am 11.6 SW 14 23 1017.6 - 0.0 - - 10 - - - -
25/09:30am 10.9 WSW 12 20 1017.7 - 0.0 - - 10 - - - -
25/09:00am 10.6 W 10 15 1017.5 - 0.6 - - 10 - - - -
25/08:30am 9.5 W 7 10 1017.2 - 0.6 - - 10 - - - -
25/08:00am 8.8 WSW 8 12 1017.0 - 0.6 - - 10 - - - -
25/07:30am 8.1 W 8 11 1016.7 - 0.6 - - 10 - - - -
25/07:00am 7.6 W 6 10 1016.3 - 0.6 - - 10 - - - -
25/06:30am 8.0 W 9 14 1015.8 - 0.6 - - 10 - - - -
25/06:00am 8.5 W 12 16 1015.2 - 0.6 - - 10 - - - -
25/05:30am 8.8 W 11 16 1015.0 - 0.6 - - 10 - - - -
25/05:00am 8.9 W 9 14 1014.7 - 0.6 - - 10 - - - -
25/04:30am 8.8 W 10 16 1014.2 - 0.6 - - 10 - - - -
25/04:00am 9.0 W 12 17 1014.2 - 0.6 - - 10 - - - -
25/03:30am 9.3 W 14 19 1013.7 - 0.6 - - 10 - - - -
25/03:00am 9.6 W 13 20 1013.6 - 0.6 - - 10 - - - -
25/02:30am 9.5 W 14 21 1013.3 - 0.6 - - 10 - - - -
25/02:00am 9.7 W 12 19 1013.3 - 0.6 - - 10 - - - -
25/01:30am 9.7 WNW 12 20 1012.8 - 0.6 - - 10 - - - -
25/01:00am 9.8 W 13 19 1012.4 - 0.6 - - 10 - - - -
25/12:30am 9.9 WNW 14 21 1012.2 - 0.6 - - 10 - - - -
25/12:00am 10.3 W 14 19 1012.2 - 0.6 - - 10 - - - -
 
Date/Time
EST
Temp
°C
Wind Pressure Rain since
9am
mm
Weather Cloud Vis
km
Sea
Height
m
Swell
Dir  Spd
kts
Gust
kts
hPa Trend Height
m
Period
s
Dir
24/11:30pm 10.6 W 16 26 1012.0 - 0.6 - - 10 - - - -
24/11:14pm 10.5 W 16 26 1011.8 - 0.6 - - 10 - - - -
24/11:00pm 10.5 WNW 14 19 1011.6 - 0.6 - - 10 - - - -
24/10:30pm 10.4 W 13 19 1011.8 - 0.6 - - 10 - - - -
24/10:00pm 10.5 WNW 13 20 1011.2 - 0.6 - - 10 - - - -
24/09:45pm 10.6 WNW 15 25 1011.4 - 0.6 - - 10 - - - -
24/09:30pm 10.6 W 12 18 1011.4 - 0.6 - - 10 - - - -
24/09:00pm 10.5 W 12 20 1011.2 - 0.6 - - 10 - - - -
24/08:30pm 10.0 W 11 17 1011.1 - 0.6 - - 10 - - - -
24/08:00pm 10.2 W 10 15 1010.7 - 0.6 - - 10 - - - -
24/07:30pm 9.6 WNW 13 17 1010.2 - 0.6 - - 10 - - - -

Other Formats:

Comma delimited format used in spreadsheet applications
http://www.bom.gov.au/fwo/IDN60701/IDN60701.95784.axf

JavaScript Object Notation format (JSON) in row-major order
http://www.bom.gov.au/fwo/IDN60701/IDN60701.95784.json